Time;durP1;ratioP1;P1;durP2;ratioP2;P2;SDS_P1;SDS_P2;PMS_P1;PMS_P2;Temp;Humidity;BMP_temperature;BMP_pressure;BME280_temperature;BME280_humidity;BME280_pressure;Samples;Min_cycle;Max_cycle;Signal;HPM_P1;HPM_P2
2022/05/29 00:06:03;;;;;;;3.03;0.40;;;17.00;96.20;;;;;;20654012;28;20283;-69
2022/05/29 00:16:05;;;;;;;1.30;0.40;;;;;;;;;;20655481;28;20224;-69
2022/05/29 00:26:07;;;;;;;1.20;0.60;;;;;;;;;;20654499;28;20683;-69
2022/05/29 00:36:14;;;;;;;1.63;0.60;;;16.80;90.60;;;;;;20653690;28;20742;-69
2022/05/29 00:46:16;;;;;;;0.80;0.50;;;;;;;;;;20662525;28;20208;-69
2022/05/29 00:56:18;;;;;;;1.00;0.40;;;;;;;;;;20670574;28;20216;-69
2022/05/29 01:06:29;;;;;;;1.47;0.50;;;;;;;;;;20673366;28;20649;-69
2022/05/29 01:16:46;;;;;;;1.97;0.60;;;;;;;;;;20666590;28;20777;-69
2022/05/29 01:27:03;;;;;;;1.20;0.40;;;;;;;;;;20648471;28;20529;-69
2022/05/29 01:37:23;;;;;;;0.60;0.30;;;;;;;;;;20671402;28;20216;-70
2022/05/29 01:47:54;;;;;;;1.17;0.50;;;16.40;94.40;;;;;;20669742;28;20699;-69
2022/05/29 01:58:00;;;;;;;1.10;0.60;;;;;;;;;;20663451;28;20204;-69
2022/05/29 02:08:04;;;;;;;1.33;0.60;;;;;;;;;;20662937;28;20742;-69
2022/05/29 02:18:09;;;;;;;0.60;0.40;;;;;;;;;;20661892;28;20204;-69
2022/05/29 02:28:13;;;;;;;2.07;0.90;;;;;;;;;;20661257;28;20219;-69
2022/05/29 02:38:41;;;;;;;2.50;0.50;;;;;;;;;;20660908;28;20203;-69
2022/05/29 02:48:45;;;;;;;0.67;0.40;;;;;;;;;;20657688;28;20655;-69
2022/05/29 02:58:52;;;;;;;0.40;0.40;;;15.80;99.90;;;;;;20661140;28;20224;-69
2022/05/29 03:08:54;;;;;;;1.07;0.50;;;;;;;;;;20922623;22;20661;-67
2022/05/29 03:18:56;;;;;;;1.07;0.47;;;;;;;;;;20988117;28;20201;-66
2022/05/29 03:29:19;;;;;;;0.80;0.40;;;;;;;;;;20980682;28;20233;-65
2022/05/29 03:39:21;;;;;;;0.30;0.30;;;;;;;;;;20975491;28;20220;-68
2022/05/29 03:49:23;;;;;;;2.80;0.50;;;;;;;;;;20986093;28;20792;-68
2022/05/29 03:59:25;;;;;;;1.07;0.47;;;;;;;;;;20984831;28;20209;-69
2022/05/29 04:20:07;;;;;;;1.00;0.30;;;;;;;;;;20808255;28;20275;-68
2022/05/29 04:30:12;;;;;;;4.90;0.77;;;;;;;;;;20918853;28;20785;-68
2022/05/29 04:40:14;;;;;;;3.07;0.63;;;;;;;;;;20917498;28;20271;-68
2022/05/29 04:50:15;;;;;;;2.03;1.00;;;;;;;;;;20911336;28;20218;-66
2022/05/29 05:00:17;;;;;;;2.00;0.87;;;;;;;;;;20912240;28;20248;-67
2022/05/29 05:10:19;;;;;;;3.20;0.47;;;;;;;;;;20972078;28;20241;-68
2022/05/29 05:20:21;;;;;;;1.90;0.87;;;;;;;;;;20975495;28;20266;-68
2022/05/29 05:30:24;;;;;;;2.23;0.70;;;;;;;;;;20991846;28;20209;-67
2022/05/29 05:40:26;;;;;;;0.83;0.40;;;;;;;;;;20948585;28;20234;-68
2022/05/29 05:50:31;;;;;;;2.17;0.70;;;;;;;;;;20933794;28;20283;-68
2022/05/29 06:00:32;;;;;;;0.53;0.40;;;;;;;;;;20952123;28;20206;-68
2022/05/29 06:10:34;;;;;;;4.00;0.50;;;15.10;99.90;;;;;;20941353;28;20959;-68
2022/05/29 06:20:37;;;;;;;1.03;0.47;;;;;;;;;;20961200;28;20299;-68
2022/05/29 06:30:38;;;;;;;1.33;0.53;;;;;;;;;;20939839;28;20590;-67
2022/05/29 06:40:42;;;;;;;1.00;0.50;;;;;;;;;;20933414;28;20284;-68
2022/05/29 06:50:44;;;;;;;4.43;0.60;;;;;;;;;;20950442;28;20214;-69
2022/05/29 07:11:16;;;;;;;3.10;0.70;;;15.90;99.90;;;;;;20948883;28;20585;-68
2022/05/29 07:21:17;;;;;;;2.00;0.70;;;15.90;99.40;;;;;;20968093;28;20223;-68
2022/05/29 07:31:19;;;;;;;0.50;0.47;;;;;;;;;;20957287;28;20684;-68
2022/05/29 07:51:42;;;;;;;1.87;0.80;;;;;;;;;;20935819;28;20221;-68
2022/05/29 08:01:44;;;;;;;2.73;0.63;;;;;;;;;;20942060;28;20291;-68
2022/05/29 08:11:46;;;;;;;0.70;0.50;;;;;;;;;;20920936;28;20221;-68
2022/05/29 08:21:47;;;;;;;3.93;0.80;;;;;;;;;;20946469;28;20251;-68
2022/05/29 08:31:49;;;;;;;2.90;0.80;;;;;;;;;;20951888;28;20212;-69
2022/05/29 08:41:54;;;;;;;2.13;0.60;;;16.90;94.60;;;;;;20952473;28;20688;-71
2022/05/29 08:52:28;;;;;;;1.37;0.67;;;17.00;92.20;;;;;;20939244;28;20710;-68
2022/05/29 09:02:30;;;;;;;1.10;0.53;;;;;;;;;;20898969;22;20235;-70
2022/05/29 09:12:40;;;;;;;1.47;0.70;;;;;;;;;;20628566;28;20227;-68
2022/05/29 09:22:47;;;;;;;2.00;0.60;;;;;;;;;;20643921;28;20215;-70
2022/05/29 09:32:52;;;;;;;0.97;0.50;;;;;;;;;;20659988;28;20227;-71
2022/05/29 09:42:56;;;;;;;4.13;0.50;;;;;;;;;;20658394;28;20267;-69
2022/05/29 09:53:01;;;;;;;1.77;0.50;;;17.90;98.50;;;;;;20648571;28;20223;-70
2022/05/29 10:03:05;;;;;;;1.93;0.63;;;;;;;;;;20646827;28;20223;-70
2022/05/29 10:13:07;;;;;;;1.57;0.53;;;;;;;;;;20642591;28;20699;-72
2022/05/29 10:23:09;;;;;;;0.90;0.40;;;;;;;;;;20640262;28;20213;-70
2022/05/29 10:33:13;;;;;;;0.80;0.30;;;;;;;;;;20631743;28;20225;-69
2022/05/29 10:43:34;;;;;;;1.13;0.60;;;;;;;;;;20628853;28;20636;-70
2022/05/29 10:53:49;;;;;;;1.07;0.30;;;;;;;;;;20639914;28;20342;-70
2022/05/29 11:03:56;;;;;;;1.00;0.47;;;;;;;;;;20636525;28;20212;-71
2022/05/29 11:14:01;;;;;;;0.47;0.20;;;;;;;;;;20642400;28;20271;-75
2022/05/29 11:24:12;;;;;;;0.83;0.40;;;;;;;;;;20639793;28;20280;-76
2022/05/29 11:34:23;;;;;;;0.40;0.20;;;;;;;;;;20646947;28;20227;-73
2022/05/29 11:44:31;;;;;;;1.20;0.47;;;;;;;;;;20633555;28;20271;-76
2022/05/29 11:54:33;;;;;;;0.30;0.30;;;;;;;;;;20644536;28;20260;-77
2022/05/29 12:04:44;;;;;;;2.40;0.87;;;;;;;;;;20641092;28;20597;-76
2022/05/29 12:14:52;;;;;;;0.47;0.30;;;;;;;;;;20630149;28;20312;-74
2022/05/29 12:25:00;;;;;;;1.07;0.50;;;20.90;69.50;;;;;;20646733;28;20289;-72
2022/05/29 12:35:13;;;;;;;0.43;0.30;;;21.40;77.00;;;;;;20641693;28;20226;-73
2022/05/29 12:45:30;;;;;;;0.20;0.20;;;22.30;84.60;;;;;;20652680;28;20210;-75
2022/05/29 12:55:40;;;;;;;0.30;0.20;;;;;;;;;;20658573;28;20252;-75
2022/05/29 13:05:44;;;;;;;0.83;0.40;;;;;;;;;;20655586;28;20258;-71
2022/05/29 13:15:47;;;;;;;0.30;0.30;;;;;;;;;;20665365;28;20579;-76
2022/05/29 13:25:56;;;;;;;2.30;0.60;;;;;;;;;;20646040;28;20262;-71
2022/05/29 13:35:58;;;;;;;0.93;0.40;;;20.90;79.20;;;;;;20660643;28;20235;-72
2022/05/29 13:46:20;;;;;;;1.10;0.30;;;21.80;76.90;;;;;;20656906;28;20280;-74
2022/05/29 13:56:42;;;;;;;1.53;0.30;;;;;;;;;;20646754;28;20283;-74
2022/05/29 14:06:45;;;;;;;1.23;0.30;;;;;;;;;;20657062;28;20300;-72
2022/05/29 14:16:47;;;;;;;0.20;0.20;;;;;;;;;;20645004;28;20223;-72
2022/05/29 14:27:03;;;;;;;1.60;0.40;;;;;;;;;;20648592;28;20278;-72
2022/05/29 14:37:23;;;;;;;1.27;0.33;;;;;;;;;;20645835;28;20330;-72
2022/05/29 14:47:36;;;;;;;0.75;0.38;;;22.60;71.50;;;;;;20644048;28;20232;-73
2022/05/29 14:57:55;;;;;;;0.40;0.30;;;22.60;68.00;;;;;;20658012;28;20288;-73
2022/05/29 15:18:21;;;;;;;0.57;0.30;;;;;;;;;;20644951;28;20219;-74
2022/05/29 15:28:23;;;;;;;0.40;0.40;;;;;;;;;;20645015;28;20305;-75
2022/05/29 15:38:40;;;;;;;0.30;0.23;;;;;;;;;;20659811;28;20279;-74
2022/05/29 15:48:53;;;;;;;1.42;0.32;;;23.00;66.50;;;;;;20661712;28;20787;-74
2022/05/29 15:59:24;;;;;;;1.53;0.40;;;;;;;;;;20646900;28;20719;-74
2022/05/29 16:09:25;;;;;;;0.20;0.20;;;;;;;;;;20638212;28;20240;-74
2022/05/29 16:19:30;;;;;;;1.30;0.60;;;;;;;;;;20648097;28;20242;-75
2022/05/29 16:29:47;;;;;;;0.50;0.30;;;;;;;;;;20666253;28;20223;-73
2022/05/29 16:50:17;;;;;;;0.70;0.40;;;22.20;62.50;;;;;;20676079;28;20238;-75
2022/05/29 17:00:21;;;;;;;0.27;0.20;;;;;;;;;;20667081;28;20216;-75
2022/05/29 17:10:28;;;;;;;1.10;0.33;;;;;;;;;;20671192;28;20289;-75
2022/05/29 17:20:31;;;;;;;1.33;0.30;;;;;;;;;;20676371;28;20207;-75
2022/05/29 17:30:38;;;;;;;0.53;0.20;;;;;;;;;;20649848;28;20230;-75
2022/05/29 17:40:41;;;;;;;0.40;0.30;;;;;;;;;;20652932;28;20663;-75
2022/05/29 17:51:11;;;;;;;0.30;0.30;;;20.30;63.70;;;;;;20653881;28;20773;-75
2022/05/29 18:01:13;;;;;;;0.73;0.20;;;;;;;;;;20617529;28;20205;-75
2022/05/29 18:11:20;;;;;;;0.63;0.27;;;20.30;79.20;;;;;;20636891;28;20281;-76
2022/05/29 18:21:22;;;;;;;0.20;0.20;;;;;;;;;;20651654;28;20274;-76
2022/05/29 18:31:24;;;;;;;0.47;0.40;;;;;;;;;;20660230;28;20242;-75
2022/05/29 18:41:26;;;;;;;0.40;0.30;;;;;;;;;;20662980;28;20775;-75
2022/05/29 18:51:28;;;;;;;0.60;0.40;;;;;;;;;;20652816;28;20254;-75
2022/05/29 19:01:30;;;;;;;1.43;0.50;;;;;;;;;;20642398;28;20257;-75
2022/05/29 19:11:33;;;;;;;0.60;0.40;;;;;;;;;;20650126;28;20292;-75
2022/05/29 19:21:36;;;;;;;0.80;0.53;;;;;;;;;;20647497;28;20194;-75
2022/05/29 19:31:42;;;;;;;0.43;0.40;;;18.90;92.10;;;;;;20645252;28;20774;-75
2022/05/29 19:41:44;;;;;;;0.87;0.30;;;;;;;;;;20661112;28;20558;-75
2022/05/29 19:51:46;;;;;;;0.43;0.40;;;;;;;;;;20646384;28;20218;-75
2022/05/29 20:01:48;;;;;;;0.37;0.30;;;;;;;;;;20627895;28;20224;-75
2022/05/29 20:11:49;;;;;;;1.13;0.50;;;;;;;;;;20634500;28;20222;-75
2022/05/29 20:21:51;;;;;;;0.83;0.60;;;;;;;;;;20643394;28;20224;-75
2022/05/29 20:31:53;;;;;;;0.87;0.47;;;;;;;;;;20650283;28;20590;-75
2022/05/29 20:41:55;;;;;;;1.20;0.50;;;18.10;93.00;;;;;;20654595;28;20255;-75
2022/05/29 20:51:58;;;;;;;0.43;0.40;;;;;;;;;;20641292;28;20730;-75
2022/05/29 21:02:00;;;;;;;1.20;0.40;;;;;;;;;;20652812;28;20615;-75
2022/05/29 21:12:03;;;;;;;1.53;0.50;;;;;;;;;;20740363;23;20234;-70
2022/05/29 21:22:09;;;;;;;0.87;0.40;;;;;;;;;;20727366;28;20215;-71
2022/05/29 21:32:11;;;;;;;0.40;0.30;;;;;;;;;;20734872;28;20223;-71
2022/05/29 21:42:12;;;;;;;0.20;0.20;;;;;;;;;;20718610;28;20219;-71
2022/05/29 21:52:14;;;;;;;0.33;0.30;;;;;;;;;;20693361;28;20282;-70
2022/05/29 22:02:16;;;;;;;0.53;0.40;;;;;;;;;;20621358;28;20266;-70
2022/05/29 22:12:18;;;;;;;0.30;0.30;;;;;;;;;;20618812;28;20243;-71
2022/05/29 22:22:20;;;;;;;0.73;0.40;;;;;;;;;;20690460;28;21063;-71
2022/05/29 22:32:46;;;;;;;0.63;0.40;;;16.70;99.90;;;;;;20705080;28;20227;-70
2022/05/29 22:42:48;;;;;;;1.07;0.40;;;;;;;;;;20750229;28;20734;-70
2022/05/29 22:52:58;;;;;;;0.50;0.30;;;16.30;99.90;;;;;;20744566;28;20239;-71
2022/05/29 23:03:03;;;;;;;0.67;0.40;;;;;;;;;;20727833;28;20249;-71
2022/05/29 23:13:06;;;;;;;0.40;0.40;;;;;;;;;;20749751;28;20277;-71
2022/05/29 23:23:09;;;;;;;0.40;0.30;;;;;;;;;;20720843;28;20219;-70
2022/05/29 23:33:11;;;;;;;0.70;0.47;;;;;;;;;;20742395;28;20764;-70
2022/05/29 23:43:18;;;;;;;0.70;0.40;;;15.80;99.90;;;;;;20725148;28;20195;-71
2022/05/29 23:53:20;;;;;;;0.93;0.30;;;15.80;99.90;;;;;;20741253;28;20239;-71
